Time;durP1;ratioP1;P1;durP2;ratioP2;P2;SDS_P1;SDS_P2;PMS_P1;PMS_P2;Temp;Humidity;BMP_temperature;BMP_pressure;BME280_temperature;BME280_humidity;BME280_pressure;Samples;Min_cycle;Max_cycle;Signal;HPM_P1;HPM_P2
2022/09/18 00:00:01;;;;;;;;;;;11.90;99.90;;;;;;5021879;28;19920;-76
2022/09/18 00:02:26;;;;;;;;;;;11.80;99.90;;;;;;5025152;28;20011;-75
2022/09/18 00:04:52;;;;;;;;;;;11.80;99.90;;;;;;5052121;28;19929;-75
2022/09/18 00:07:18;;;;;;;;;;;11.80;99.90;;;;;;5025294;28;19920;-75
2022/09/18 00:09:44;;;;;;;;;;;11.90;99.90;;;;;;5052149;28;20375;-76
2022/09/18 00:12:09;;;;;;;;;;;12.30;99.90;;;;;;5051566;28;19935;-76
2022/09/18 00:14:35;;;;;;;;;;;11.90;99.90;;;;;;5045747;28;19930;-76
2022/09/18 00:17:01;;;;;;;;;;;11.80;99.90;;;;;;5022167;28;20299;-76
2022/09/18 00:19:33;;;;;;;;;;;11.90;99.90;;;;;;5046706;28;19917;-76
2022/09/18 00:21:59;;;;;;;;;;;11.90;99.90;;;;;;5051108;28;19978;-76
2022/09/18 00:24:24;;;;;;;;;;;11.90;99.90;;;;;;5025677;28;19920;-76
2022/09/18 00:26:50;;;;;;;;;;;11.90;99.90;;;;;;5051773;28;19925;-76
2022/09/18 00:29:16;;;;;;;;;;;11.90;99.90;;;;;;5022068;28;20007;-77
2022/09/18 00:31:41;;;;;;;;;;;11.90;99.90;;;;;;5025837;28;20434;-76
2022/09/18 00:34:09;;;;;;;;;;;12.00;99.90;;;;;;5025853;28;19925;-75
2022/09/18 00:36:36;;;;;;;;;;;12.00;99.90;;;;;;5024801;28;19928;-76
2022/09/18 00:39:02;;;;;;;;;;;12.00;99.90;;;;;;5022287;28;19928;-77
2022/09/18 00:41:29;;;;;;;;;;;12.10;99.90;;;;;;5051136;28;20047;-77
2022/09/18 00:44:15;;;;;;;;;;;12.00;99.90;;;;;;5023928;28;19936;-78
2022/09/18 00:46:41;;;;;;;;;;;12.00;99.90;;;;;;5049794;28;20312;-77
2022/09/18 00:49:10;;;;;;;;;;;12.00;99.90;;;;;;5029429;28;19920;-76
2022/09/18 00:51:37;;;;;;;;;;;11.90;99.90;;;;;;5055191;28;19920;-76
2022/09/18 00:54:21;;;;;;;;;;;11.90;99.90;;;;;;5029765;28;19990;-76
2022/09/18 00:56:49;;;;;;;;;;;11.80;99.90;;;;;;5025819;28;20255;-75
2022/09/18 00:59:16;;;;;;;;;;;11.90;99.90;;;;;;5026926;28;19977;-76
2022/09/18 01:01:42;;;;;;;;;;;11.90;99.90;;;;;;5029915;28;20372;-76
2022/09/18 01:04:09;;;;;;;;;;;11.80;99.90;;;;;;5029545;28;20014;-76
2022/09/18 01:06:45;;;;;;;;;;;11.80;99.90;;;;;;5055980;28;19917;-76
2022/09/18 01:09:20;;;;;;;;;;;11.80;99.90;;;;;;5030694;28;20323;-76
2022/09/18 01:12:09;;;;;;;;;;;11.70;99.90;;;;;;5029014;28;19924;-76
2022/09/18 01:15:01;;;;;;;;;;;11.80;99.90;;;;;;5024285;28;19921;-76
2022/09/18 01:17:29;;;;;;;;;;;11.70;99.90;;;;;;5019624;28;19925;-76
2022/09/18 01:20:11;;;;;;;;;;;11.80;99.90;;;;;;5021375;28;20007;-76
2022/09/18 01:22:55;;;;;;;;;;;11.70;99.90;;;;;;5049891;28;19924;-76
2022/09/18 01:25:39;;;;;;;;;;;11.80;99.90;;;;;;5054272;28;19959;-75
2022/09/18 01:28:25;;;;;;;;;;;11.80;99.90;;;;;;5023724;28;19944;-76
2022/09/18 01:30:56;;;;;;;;;;;11.80;99.90;;;;;;5028435;28;19925;-76
2022/09/18 01:33:29;;;;;;;;;;;11.70;99.90;;;;;;5024327;28;19963;-76
2022/09/18 01:35:57;;;;;;;;;;;11.70;99.90;;;;;;5022089;28;20331;-76
2022/09/18 01:38:29;;;;;;;;;;;11.70;99.90;;;;;;5046714;28;20016;-76
2022/09/18 01:40:57;;;;;;;;;;;11.80;99.90;;;;;;5021615;28;19921;-76
2022/09/18 01:43:25;;;;;;;;;;;11.70;99.90;;;;;;5043597;28;20007;-76
2022/09/18 01:45:54;;;;;;;;;;;11.60;99.90;;;;;;5020699;28;19928;-75
2022/09/18 01:48:25;;;;;;;;;;;11.60;99.90;;;;;;5046746;28;19920;-75
2022/09/18 01:50:53;;;;;;;;;;;11.60;99.90;;;;;;5021511;28;20361;-76
2022/09/18 01:53:26;;;;;;;;;;;11.60;99.90;;;;;;5053292;28;20373;-76
2022/09/18 01:56:24;;;;;;;;;;;11.50;99.90;;;;;;5047067;28;19920;-75
2022/09/18 01:58:52;;;;;;;;;;;11.50;99.90;;;;;;4996612;28;19977;-76
2022/09/18 02:01:20;;;;;;;;;;;11.50;99.90;;;;;;5024128;28;19925;-75
2022/09/18 02:03:47;;;;;;;;;;;11.50;99.90;;;;;;5028041;28;19986;-75
2022/09/18 02:06:25;;;;;;;;;;;11.40;99.90;;;;;;5028927;28;19921;-76
2022/09/18 02:08:56;;;;;;;;;;;11.40;99.90;;;;;;5046701;28;19967;-75
2022/09/18 02:11:22;;;;;;;;;;;11.50;99.90;;;;;;5027687;28;19994;-75
2022/09/18 02:13:51;;;;;;;;;;;11.60;99.90;;;;;;5047696;28;19956;-75
2022/09/18 02:16:19;;;;;;;;;;;11.60;99.90;;;;;;5020481;28;19927;-75
2022/09/18 02:18:48;;;;;;;;;;;11.50;99.90;;;;;;5027873;28;19924;-75
2022/09/18 02:21:15;;;;;;;;;;;11.50;99.90;;;;;;5027338;28;19956;-75
2022/09/18 02:23:41;;;;;;;;;;;11.40;99.90;;;;;;5027787;28;20676;-76
2022/09/18 02:26:08;;;;;;;;;;;11.40;99.90;;;;;;5054357;28;19927;-76
2022/09/18 02:28:34;;;;;;;;;;;11.40;99.90;;;;;;5050157;28;19920;-76
2022/09/18 02:31:00;;;;;;;;;;;11.40;99.90;;;;;;5053706;28;19925;-76
2022/09/18 02:33:30;;;;;;;;;;;11.40;99.90;;;;;;5027629;28;20007;-75
2022/09/18 02:36:14;;;;;;;;;;;11.40;99.90;;;;;;5027202;28;19925;-76
2022/09/18 02:38:39;;;;;;;;;;;11.50;99.90;;;;;;5027258;28;19932;-75
2022/09/18 02:41:25;;;;;;;;;;;11.50;99.90;;;;;;5054001;28;20288;-75
2022/09/18 02:43:56;;;;;;;;;;;11.50;99.90;;;;;;5035316;28;19921;-75
2022/09/18 02:46:27;;;;;;;;;;;11.60;99.90;;;;;;5027276;28;19921;-75
2022/09/18 02:48:58;;;;;;;;;;;11.50;99.90;;;;;;5053805;28;19928;-75
2022/09/18 02:51:33;;;;;;;;;;;11.50;99.90;;;;;;5020436;28;19944;-75
2022/09/18 02:54:02;;;;;;;;;;;11.50;99.90;;;;;;5017091;28;20592;-75
2022/09/18 02:56:47;;;;;;;;;;;11.50;99.90;;;;;;5016846;28;19987;-75
2022/09/18 02:59:16;;;;;;;;;;;11.50;99.90;;;;;;5044446;28;20327;-75
2022/09/18 03:01:42;;;;;;;;;;;11.40;99.90;;;;;;5026125;28;19921;-75
2022/09/18 03:04:13;;;;;;;;;;;11.40;99.90;;;;;;5044626;28;20399;-75
2022/09/18 03:06:38;;;;;;;;;;;11.40;99.90;;;;;;5019359;28;20003;-75
2022/09/18 03:09:04;;;;;;;;;;;11.30;99.90;;;;;;5027280;28;19968;-75
2022/09/18 03:11:29;;;;;;;;;;;11.40;99.90;;;;;;5025611;28;19927;-75
2022/09/18 03:13:55;;;;;;;;;;;11.30;99.90;;;;;;5045689;28;19920;-75
2022/09/18 03:16:21;;;;;;;;;;;11.40;99.90;;;;;;5026135;28;19920;-75
2022/09/18 03:18:46;;;;;;;;;;;11.40;99.90;;;;;;5051155;28;19984;-75
2022/09/18 03:21:12;;;;;;;;;;;11.60;99.90;;;;;;5026572;28;19921;-76
2022/09/18 03:23:37;;;;;;;;;;;11.40;99.90;;;;;;5026829;28;19928;-75
2022/09/18 03:26:03;;;;;;;;;;;11.40;99.90;;;;;;5023157;28;19917;-75
2022/09/18 03:28:31;;;;;;;;;;;11.40;99.90;;;;;;5046928;28;19929;-75
2022/09/18 03:30:56;;;;;;;;;;;11.40;99.90;;;;;;5027039;28;19925;-75
2022/09/18 03:33:22;;;;;;;;;;;11.50;99.90;;;;;;5025797;28;19925;-75
2022/09/18 03:35:47;;;;;;;;;;;11.50;99.90;;;;;;5027132;28;19920;-75
2022/09/18 03:38:13;;;;;;;;;;;11.50;99.90;;;;;;5052277;28;19924;-75
2022/09/18 03:40:42;;;;;;;;;;;11.50;99.90;;;;;;5052282;28;20264;-76
2022/09/18 03:43:07;;;;;;;;;;;11.60;99.90;;;;;;5024535;28;20372;-76
2022/09/18 03:45:33;;;;;;;;;;;11.50;99.90;;;;;;5025446;28;19966;-76
2022/09/18 03:47:58;;;;;;;;;;;11.50;99.90;;;;;;5026775;28;20406;-76
2022/09/18 03:50:24;;;;;;;;;;;11.50;99.90;;;;;;5025780;28;20344;-75
2022/09/18 03:52:49;;;;;;;;;;;11.50;99.90;;;;;;5051924;28;20383;-75
2022/09/18 03:55:15;;;;;;;;;;;11.50;99.90;;;;;;5026250;28;20421;-75
2022/09/18 03:57:41;;;;;;;;;;;11.50;99.90;;;;;;5051299;28;19943;-75
2022/09/18 04:00:06;;;;;;;;;;;11.60;99.90;;;;;;5022745;28;19917;-75
2022/09/18 04:02:32;;;;;;;;;;;11.30;99.90;;;;;;5026282;28;19975;-76
2022/09/18 04:04:57;;;;;;;;;;;11.20;99.90;;;;;;5018818;28;19917;-75
2022/09/18 04:07:23;;;;;;;;;;;11.10;99.90;;;;;;5050625;28;19966;-75
2022/09/18 04:09:49;;;;;;;;;;;11.30;99.90;;;;;;5051986;28;20005;-75
2022/09/18 04:12:14;;;;;;;;;;;11.00;99.90;;;;;;5025692;28;19960;-75
2022/09/18 04:14:40;;;;;;;;;;;11.00;99.90;;;;;;5020786;28;19920;-75
2022/09/18 04:17:05;;;;;;;;;;;11.10;99.90;;;;;;5026553;28;19960;-75
2022/09/18 04:19:31;;;;;;;;;;;11.10;99.90;;;;;;5025235;28;20392;-75
2022/09/18 04:21:56;;;;;;;;;;;11.00;99.90;;;;;;5051809;28;19920;-75
2022/09/18 04:24:22;;;;;;;;;;;11.00;99.90;;;;;;5026061;28;20363;-76
2022/09/18 04:26:48;;;;;;;;;;;11.00;99.90;;;;;;5026364;28;19917;-75
2022/09/18 04:29:14;;;;;;;;;;;11.00;99.90;;;;;;5022348;28;19921;-76
2022/09/18 04:31:39;;;;;;;;;;;11.00;99.90;;;;;;5022056;28;19924;-75
2022/09/18 04:34:06;;;;;;;;;;;11.00;99.90;;;;;;5051832;28;19946;-75
2022/09/18 04:36:31;;;;;;;;;;;11.00;99.90;;;;;;5050882;28;19927;-75
2022/09/18 04:38:57;;;;;;;;;;;11.10;99.90;;;;;;5026085;28;19921;-76
2022/09/18 04:41:22;;;;;;;;;;;11.10;99.90;;;;;;5051531;28;19920;-75
2022/09/18 04:43:48;;;;;;;;;;;11.10;99.90;;;;;;5021097;28;20292;-75
2022/09/18 04:46:13;;;;;;;;;;;11.10;99.90;;;;;;5025913;28;19920;-76
2022/09/18 04:48:39;;;;;;;;;;;11.10;99.90;;;;;;5024954;28;20381;-76
2022/09/18 04:51:04;;;;;;;;;;;11.10;99.90;;;;;;5025791;28;19921;-75
2022/09/18 04:53:31;;;;;;;;;;;11.10;99.90;;;;;;5025393;28;20432;-75
2022/09/18 04:55:56;;;;;;;;;;;11.10;99.90;;;;;;5025008;28;19920;-75
2022/09/18 04:58:22;;;;;;;;;;;11.10;99.90;;;;;;5021278;28;19931;-75
2022/09/18 05:00:49;;;;;;;;;;;11.10;99.90;;;;;;5050964;28;20007;-75
2022/09/18 05:03:16;;;;;;;;;;;11.20;99.90;;;;;;5050450;28;19967;-76
2022/09/18 05:05:42;;;;;;;;;;;11.30;99.90;;;;;;5051576;28;19932;-74
2022/09/18 05:08:08;;;;;;;;;;;11.40;99.90;;;;;;5025606;28;19928;-76
2022/09/18 05:10:33;;;;;;;;;;;11.50;99.90;;;;;;5047713;28;19921;-75
2022/09/18 05:13:02;;;;;;;;;;;11.40;99.90;;;;;;5025557;28;20300;-75
2022/09/18 05:15:27;;;;;;;;;;;11.20;99.90;;;;;;5025327;28;19921;-76
2022/09/18 05:17:59;;;;;;;;;;;11.20;99.90;;;;;;5050593;28;19971;-76
2022/09/18 05:20:25;;;;;;;;;;;11.10;99.90;;;;;;5025032;28;20391;-76
2022/09/18 05:22:50;;;;;;;;;;;11.10;99.90;;;;;;5025678;28;19921;-75
2022/09/18 05:25:19;;;;;;;;;;;11.10;99.90;;;;;;5019925;28;20000;-76
2022/09/18 05:27:54;;;;;;;;;;;11.30;99.90;;;;;;5034989;28;19921;-75
2022/09/18 05:30:20;;;;;;;;;;;11.10;99.90;;;;;;5046545;28;19930;-75
2022/09/18 05:33:12;;;;;;;;;;;11.20;99.90;;;;;;5052658;28;19921;-76
2022/09/18 05:35:38;;;;;;;;;;;11.10;99.90;;;;;;5024583;28;19929;-75
2022/09/18 05:38:04;;;;;;;;;;;11.10;99.90;;;;;;5028319;28;19921;-75
2022/09/18 05:40:31;;;;;;;;;;;11.10;99.90;;;;;;5028036;28;19924;-74
2022/09/18 05:42:57;;;;;;;;;;;11.10;99.90;;;;;;5026638;28;19974;-74
2022/09/18 05:45:26;;;;;;;;;;;11.00;99.90;;;;;;5027539;28;19921;-73
2022/09/18 05:47:59;;;;;;;;;;;11.00;99.90;;;;;;5029168;28;19921;-74
2022/09/18 05:50:25;;;;;;;;;;;11.00;99.90;;;;;;5054656;28;19921;-73
2022/09/18 05:52:57;;;;;;;;;;;11.00;99.90;;;;;;5028290;28;19931;-73
2022/09/18 05:55:27;;;;;;;;;;;11.00;99.90;;;;;;5054425;28;19966;-74
2022/09/18 05:57:56;;;;;;;;;;;11.10;99.90;;;;;;5051911;28;20015;-75
2022/09/18 06:00:22;;;;;;;;;;;11.00;99.90;;;;;;5053593;28;20329;-73
2022/09/18 06:02:55;;;;;;;;;;;11.10;99.90;;;;;;5054675;28;19921;-75
2022/09/18 06:05:21;;;;;;;;;;;11.10;99.90;;;;;;5028363;28;19920;-73
2022/09/18 06:07:46;;;;;;;;;;;11.20;99.90;;;;;;5053981;28;20389;-74
2022/09/18 06:10:12;;;;;;;;;;;11.20;99.90;;;;;;5054343;28;19920;-73
2022/09/18 06:12:37;;;;;;;;;;;11.20;99.90;;;;;;5023376;28;20050;-73
2022/09/18 06:15:03;;;;;;;;;;;11.20;99.90;;;;;;5053768;28;20008;-74
2022/09/18 06:17:28;;;;;;;;;;;11.20;99.90;;;;;;5028133;28;19916;-73
2022/09/18 06:19:58;;;;;;;;;;;11.20;99.90;;;;;;5019340;28;19921;-75
2022/09/18 06:22:24;;;;;;;;;;;11.20;99.90;;;;;;5020542;28;19921;-75
2022/09/18 06:24:50;;;;;;;;;;;11.20;99.90;;;;;;5027340;28;19932;-74
2022/09/18 06:27:15;;;;;;;;;;;11.20;99.90;;;;;;5029238;28;19921;-77
2022/09/18 06:29:42;;;;;;;;;;;11.20;99.90;;;;;;5027824;28;19921;-74
2022/09/18 06:32:07;;;;;;;;;;;11.10;99.90;;;;;;5024243;28;19921;-75
2022/09/18 06:34:33;;;;;;;;;;;11.10;99.90;;;;;;5026832;28;19920;-76
2022/09/18 06:36:58;;;;;;;;;;;11.20;99.90;;;;;;5053456;28;20289;-74
2022/09/18 06:39:24;;;;;;;;;;;11.20;99.90;;;;;;5027478;28;20019;-75
2022/09/18 06:41:49;;;;;;;;;;;11.10;99.90;;;;;;5049718;28;20008;-75
2022/09/18 06:44:15;;;;;;;;;;;11.10;99.90;;;;;;5025590;28;19921;-75
2022/09/18 06:46:43;;;;;;;;;;;11.20;99.90;;;;;;5024392;28;20011;-75
2022/09/18 06:49:09;;;;;;;;;;;11.10;99.90;;;;;;5052663;28;19920;-74
2022/09/18 06:51:34;;;;;;;;;;;11.10;99.90;;;;;;5025815;28;19927;-74
2022/09/18 06:54:00;;;;;;;;;;;11.10;99.90;;;;;;5053372;28;19925;-74
2022/09/18 06:56:25;;;;;;;;;;;11.10;99.90;;;;;;5052530;28;19999;-74
2022/09/18 06:58:52;;;;;;;;;;;11.10;99.90;;;;;;5022804;28;19917;-75
2022/09/18 07:01:17;;;;;;;;;;;11.10;99.90;;;;;;5027513;28;19920;-74
2022/09/18 07:03:43;;;;;;;;;;;11.10;99.90;;;;;;5052302;28;19966;-73
2022/09/18 07:06:09;;;;;;;;;;;11.10;99.90;;;;;;5027083;28;19921;-73
2022/09/18 07:08:34;;;;;;;;;;;11.10;99.90;;;;;;5052453;28;19928;-73
2022/09/18 07:11:01;;;;;;;;;;;11.10;99.90;;;;;;5026339;28;19920;-72
2022/09/18 07:13:30;;;;;;;;;;;11.10;99.90;;;;;;5039521;28;19960;-72
2022/09/18 07:15:56;;;;;;;;;;;11.10;99.90;;;;;;5041376;28;19928;-75
2022/09/18 07:18:25;;;;;;;;;;;11.10;99.90;;;;;;5051382;28;20004;-73
2022/09/18 07:20:52;;;;;;;;;;;11.20;99.90;;;;;;5026315;28;20016;-72
2022/09/18 07:23:18;;;;;;;;;;;11.10;99.90;;;;;;5025973;28;19943;-76
2022/09/18 07:25:44;;;;;;;;;;;11.20;99.90;;;;;;5026340;28;20281;-74
2022/09/18 07:28:09;;;;;;;;;;;11.20;99.90;;;;;;5051187;28;20007;-73
2022/09/18 07:30:36;;;;;;;;;;;11.20;99.90;;;;;;5051425;28;19920;-75
2022/09/18 07:33:02;;;;;;;;;;;11.10;99.90;;;;;;5026636;28;19928;-80
2022/09/18 07:35:28;;;;;;;;;;;11.10;99.90;;;;;;5026247;28;20373;-73
2022/09/18 07:37:57;;;;;;;;;;;11.10;99.90;;;;;;5026256;28;19921;-78
2022/09/18 07:40:23;;;;;;;;;;;11.10;99.90;;;;;;5019291;28;19928;-77
2022/09/18 07:42:49;;;;;;;;;;;11.20;99.90;;;;;;5025738;28;19921;-75
2022/09/18 07:45:14;;;;;;;;;;;11.20;99.90;;;;;;5025813;28;20350;-76
2022/09/18 07:47:40;;;;;;;;;;;11.20;99.90;;;;;;5046869;28;19920;-72
2022/09/18 07:50:06;;;;;;;;;;;11.30;99.90;;;;;;5026272;28;19975;-72
2022/09/18 07:52:31;;;;;;;;;;;11.30;99.90;;;;;;5025314;28;19950;-70
2022/09/18 07:54:57;;;;;;;;;;;11.30;99.90;;;;;;5025547;28;19974;-70
2022/09/18 07:57:23;;;;;;;;;;;11.40;99.90;;;;;;5026283;28;19955;-71
2022/09/18 07:59:49;;;;;;;;;;;11.50;99.90;;;;;;5046854;28;19920;-72
2022/09/18 08:02:14;;;;;;;;;;;11.60;99.90;;;;;;5052268;28;20353;-72
2022/09/18 08:04:40;;;;;;;;;;;11.70;99.90;;;;;;5025276;28;19924;-75
2022/09/18 08:07:05;;;;;;;;;;;11.80;99.90;;;;;;5025428;28;19943;-74
2022/09/18 08:09:30;;;;;;;;;;;11.70;99.90;;;;;;5021724;28;19921;-74
2022/09/18 08:11:56;;;;;;;;;;;11.70;99.90;;;;;;5050238;28;20296;-74
2022/09/18 08:14:23;;;;;;;;;;;11.70;99.90;;;;;;5022883;28;19961;-73
2022/09/18 08:16:48;;;;;;;;;;;11.60;99.90;;;;;;5025007;28;19986;-74
2022/09/18 08:19:14;;;;;;;;;;;11.70;99.90;;;;;;5050640;28;20291;-74
2022/09/18 08:21:39;;;;;;;;;;;11.60;99.90;;;;;;5023754;28;19936;-74
2022/09/18 08:24:08;;;;;;;;;;;11.50;99.90;;;;;;5050510;28;20092;-74
2022/09/18 08:26:37;;;;;;;;;;;12.40;99.90;;;;;;5048980;28;20316;-74
2022/09/18 08:29:03;;;;;;;;;;;11.80;99.90;;;;;;5046888;28;20344;-74
2022/09/18 08:31:29;;;;;;;;;;;11.60;99.90;;;;;;5025099;28;19920;-74
2022/09/18 08:33:56;;;;;;;;;;;11.70;99.90;;;;;;5051075;28;19925;-74
2022/09/18 08:36:21;;;;;;;;;;;11.90;99.90;;;;;;5025909;28;20279;-74
2022/09/18 08:38:47;;;;;;;;;;;11.70;99.90;;;;;;5025934;28;20000;-75
2022/09/18 08:41:24;;;;;;;;;;;11.80;99.90;;;;;;5051454;28;20008;-75
2022/09/18 08:44:04;;;;;;;;;;;11.80;99.90;;;;;;5020416;28;20336;-75
2022/09/18 08:46:36;;;;;;;;;;;11.90;99.90;;;;;;5044066;28;19946;-74
2022/09/18 08:49:16;;;;;;;;;;;12.00;99.90;;;;;;5025493;28;19924;-74
2022/09/18 08:51:42;;;;;;;;;;;12.00;99.90;;;;;;5018888;28;19921;-75
2022/09/18 08:54:26;;;;;;;;;;;12.10;99.90;;;;;;5051584;28;19921;-75
2022/09/18 08:56:53;;;;;;;;;;;12.10;99.90;;;;;;5020743;28;19925;-74
2022/09/18 08:59:26;;;;;;;;;;;12.10;99.90;;;;;;5023487;28;19968;-74
2022/09/18 09:02:06;;;;;;;;;;;12.00;99.90;;;;;;5051257;28;19964;-75
2022/09/18 09:04:31;;;;;;;;;;;12.00;99.90;;;;;;5025922;28;19967;-74
2022/09/18 09:06:57;;;;;;;;;;;12.00;99.90;;;;;;5054561;28;19916;-74
2022/09/18 09:09:37;;;;;;;;;;;12.00;99.90;;;;;;5028725;28;19943;-74
2022/09/18 09:12:03;;;;;;;;;;;12.00;99.90;;;;;;5029344;28;19975;-74
2022/09/18 09:14:38;;;;;;;;;;;12.00;99.90;;;;;;5028777;28;19925;-74
2022/09/18 09:17:08;;;;;;;;;;;12.00;99.90;;;;;;5028571;28;19921;-74
2022/09/18 09:19:40;;;;;;;;;;;12.00;99.90;;;;;;5028956;28;19964;-74
2022/09/18 09:22:16;;;;;;;;;;;11.90;99.90;;;;;;5022093;28;20460;-74
2022/09/18 09:24:45;;;;;;;;;;;11.80;99.90;;;;;;5049170;28;20011;-74
2022/09/18 09:27:20;;;;;;;;;;;11.80;99.90;;;;;;5052874;28;19921;-74
2022/09/18 09:29:46;;;;;;;;;;;11.80;99.90;;;;;;5029249;28;19928;-74
2022/09/18 09:32:11;;;;;;;;;;;11.80;99.90;;;;;;5054894;28;19921;-75
2022/09/18 09:34:43;;;;;;;;;;;12.20;99.90;;;;;;5028588;28;19920;-75
2022/09/18 09:37:13;;;;;;;;;;;12.00;99.90;;;;;;5024260;28;19921;-75
2022/09/18 09:39:40;;;;;;;;;;;12.00;99.90;;;;;;5054674;28;20372;-75
2022/09/18 09:42:24;;;;;;;;;;;12.00;99.90;;;;;;5052912;28;19959;-75
2022/09/18 09:45:08;;;;;;;;;;;12.10;99.90;;;;;;5025204;28;20288;-75
2022/09/18 09:47:53;;;;;;;;;;;12.00;99.90;;;;;;5021793;28;19925;-74
2022/09/18 09:50:28;;;;;;;;;;;12.00;99.90;;;;;;5025033;28;19921;-75
2022/09/18 09:52:59;;;;;;;;;;;12.10;99.90;;;;;;5054420;28;19967;-75
2022/09/18 09:55:27;;;;;;;;;;;12.10;99.90;;;;;;5028217;28;19990;-74
2022/09/18 09:58:19;;;;;;;;;;;12.10;99.90;;;;;;5049506;28;19964;-75
2022/09/18 10:01:20;;;;;;;;;;;12.10;99.90;;;;;;5001142;28;19928;-75
2022/09/18 10:03:48;;;;;;;;;;;12.10;99.90;;;;;;4985035;28;19948;-76
2022/09/18 10:06:22;;;;;;;;;;;12.10;99.90;;;;;;5017519;28;19967;-76
2022/09/18 10:08:53;;;;;;;;;;;12.30;99.90;;;;;;5054536;28;19921;-76
2022/09/18 10:11:18;;;;;;;;;;;12.30;99.90;;;;;;5048557;28;19975;-75
2022/09/18 10:13:48;;;;;;;;;;;12.40;99.90;;;;;;5027242;28;19924;-75
2022/09/18 10:16:32;;;;;;;;;;;12.40;99.90;;;;;;5027828;28;19931;-75
2022/09/18 10:18:58;;;;;;;;;;;12.50;99.90;;;;;;5020270;28;20508;-75
2022/09/18 10:21:26;;;;;;;;;;;12.60;99.90;;;;;;5026485;28;20019;-75
2022/09/18 10:24:03;;;;;;;;;;;12.70;99.90;;;;;;5028204;28;20276;-74
2022/09/18 10:26:32;;;;;;;;;;;12.70;99.90;;;;;;5019391;28;19987;-75
2022/09/18 10:28:59;;;;;;;;;;;12.80;99.90;;;;;;5028253;28;19924;-74
2022/09/18 10:31:44;;;;;;;;;;;12.90;99.90;;;;;;5019874;28;19928;-74
2022/09/18 10:34:29;;;;;;;;;;;13.00;99.90;;;;;;5021550;28;20397;-74
2022/09/18 10:36:54;;;;;;;;;;;13.00;99.90;;;;;;5020807;28;20396;-74
2022/09/18 10:39:30;;;;;;;;;;;13.10;99.90;;;;;;5027660;28;19924;-74
2022/09/18 10:41:56;;;;;;;;;;;13.10;99.90;;;;;;5040691;28;19928;-74
2022/09/18 10:44:26;;;;;;;;;;;13.10;99.90;;;;;;5019849;28;19921;-74
2022/09/18 10:47:07;;;;;;;;;;;13.20;99.90;;;;;;5020345;28;19967;-74
2022/09/18 10:49:33;;;;;;;;;;;13.30;99.90;;;;;;5047426;28;19921;-74
2022/09/18 10:52:17;;;;;;;;;;;13.40;99.90;;;;;;5027352;28;19920;-74
2022/09/18 10:55:01;;;;;;;;;;;13.40;99.90;;;;;;5052701;28;19921;-74
2022/09/18 10:57:53;;;;;;;;;;;13.50;99.90;;;;;;5020104;28;19920;-74
2022/09/18 11:00:18;;;;;;;;;;;13.50;99.90;;;;;;5016954;28;19955;-74
2022/09/18 11:02:44;;;;;;;;;;;13.70;99.90;;;;;;5051940;28;19924;-74
2022/09/18 11:05:17;;;;;;;;;;;13.80;99.90;;;;;;5049028;28;19998;-74
2022/09/18 11:07:49;;;;;;;;;;;13.70;99.90;;;;;;5052934;28;19935;-75
2022/09/18 11:10:16;;;;;;;;;;;13.80;99.90;;;;;;5052120;28;19927;-74
2022/09/18 11:12:46;;;;;;;;;;;13.80;99.90;;;;;;5023306;28;20385;-74
2022/09/18 11:15:15;;;;;;;;;;;13.90;99.90;;;;;;5027050;28;19964;-75
2022/09/18 11:17:57;;;;;;;;;;;13.90;99.90;;;;;;5026254;28;19928;-74
2022/09/18 11:20:25;;;;;;;;;;;14.00;99.90;;;;;;5015890;28;20015;-74
2022/09/18 11:22:51;;;;;;;;;;;14.00;99.90;;;;;;5026188;28;19924;-75
2022/09/18 11:25:21;;;;;;;;;;;14.00;99.90;;;;;;5026372;28;19967;-74
2022/09/18 11:27:51;;;;;;;;;;;14.10;99.90;;;;;;5019938;28;19921;-74
2022/09/18 11:30:27;;;;;;;;;;;14.00;99.90;;;;;;5042815;28;20427;-74
2022/09/18 11:32:59;;;;;;;;;;;14.10;99.90;;;;;;5020910;28;20024;-74
2022/09/18 11:35:26;;;;;;;;;;;13.90;99.90;;;;;;5048834;28;19971;-74
2022/09/18 11:37:53;;;;;;;;;;;13.70;99.90;;;;;;5025596;28;19975;-74
2022/09/18 11:40:27;;;;;;;;;;;13.40;99.90;;;;;;5025783;28;19921;-74
2022/09/18 11:42:53;;;;;;;;;;;13.20;99.90;;;;;;5026331;28;20007;-75
2022/09/18 11:45:27;;;;;;;;;;;13.10;99.90;;;;;;5025235;28;20008;-73
2022/09/18 11:48:01;;;;;;;;;;;13.10;99.90;;;;;;5053050;28;19920;-74
2022/09/18 11:50:29;;;;;;;;;;;13.00;99.90;;;;;;5049560;28;20273;-74
2022/09/18 11:52:59;;;;;;;;;;;13.00;99.90;;;;;;5051472;28;19927;-74
2022/09/18 11:55:40;;;;;;;;;;;13.00;99.90;;;;;;5025890;28;19971;-74
2022/09/18 11:58:28;;;;;;;;;;;13.10;99.90;;;;;;5025229;28;20019;-75
2022/09/18 12:01:09;;;;;;;;;;;13.10;99.90;;;;;;5021852;28;20380;-75
2022/09/18 12:03:38;;;;;;;;;;;13.20;99.90;;;;;;5052313;28;19964;-75
2022/09/18 12:06:20;;;;;;;;;;;13.30;99.90;;;;;;5020995;28;20329;-75
2022/09/18 12:08:52;;;;;;;;;;;13.30;99.90;;;;;;5042585;28;19927;-75
2022/09/18 12:11:23;;;;;;;;;;;13.50;99.90;;;;;;5025341;28;20395;-75
2022/09/18 12:14:02;;;;;;;;;;;13.60;99.90;;;;;;5025654;28;20074;-75
2022/09/18 12:16:36;;;;;;;;;;;13.60;99.90;;;;;;5026061;28;19964;-74
2022/09/18 12:19:09;;;;;;;;;;;13.70;99.90;;;;;;5022872;28;20288;-74
2022/09/18 12:21:38;;;;;;;;;;;13.70;99.90;;;;;;5025452;28;19928;-74
2022/09/18 12:24:06;;;;;;;;;;;13.80;99.90;;;;;;5044039;28;20344;-72
2022/09/18 12:26:31;;;;;;;;;;;13.80;99.90;;;;;;5024524;28;19920;-73
2022/09/18 12:29:08;;;;;;;;;;;13.80;99.90;;;;;;5021281;28;19917;-74
2022/09/18 12:31:48;;;;;;;;;;;13.80;99.90;;;;;;5015363;28;19925;-72
2022/09/18 12:34:29;;;;;;;;;;;13.70;99.90;;;;;;5036656;28;19936;-72
2022/09/18 12:36:57;;;;;;;;;;;13.70;99.90;;;;;;5024962;28;19921;-76
2022/09/18 12:39:42;;;;;;;;;;;13.50;99.90;;;;;;5024540;28;19930;-75
2022/09/18 12:42:26;;;;;;;;;;;13.50;99.90;;;;;;5053879;28;19940;-76
2022/09/18 12:44:58;;;;;;;;;;;13.30;99.90;;;;;;5030218;28;19921;-78
2022/09/18 12:47:39;;;;;;;;;;;13.10;99.90;;;;;;5028830;28;19928;-73
2022/09/18 12:50:05;;;;;;;;;;;13.00;99.90;;;;;;5022833;28;19991;-76
2022/09/18 12:52:37;;;;;;;;;;;13.00;99.90;;;;;;5029847;28;20376;-77
2022/09/18 12:55:27;;;;;;;;;;;12.90;99.90;;;;;;5022157;28;20023;-81
2022/09/18 12:58:11;;;;;;;;;;;12.90;99.90;;;;;;4999345;28;19975;-76
2022/09/18 13:00:37;;;;;;;;;;;12.90;99.90;;;;;;5043216;28;19939;-76
2022/09/18 13:03:19;;;;;;;;;;;12.90;99.90;;;;;;5052618;28;20011;-79
2022/09/18 13:05:52;;;;;;;;;;;13.00;99.90;;;;;;5054030;28;19921;-77
2022/09/18 13:08:17;;;;;;;;;;;13.00;99.90;;;;;;5054004;28;19966;-80
2022/09/18 13:10:44;;;;;;;;;;;13.30;99.90;;;;;;5055496;28;20289;-82
2022/09/18 13:13:19;;;;;;;;;;;13.30;99.90;;;;;;5055179;28;19920;-77
2022/09/18 13:15:51;;;;;;;;;;;13.30;99.90;;;;;;5028596;28;19924;-81
2022/09/18 13:18:36;;;;;;;;;;;13.40;99.90;;;;;;5026317;28;19928;-77
2022/09/18 13:21:03;;;;;;;;;;;13.50;99.90;;;;;;5048442;28;20351;-78
2022/09/18 13:23:31;;;;;;;;;;;13.60;99.90;;;;;;5023838;28;20020;-78
2022/09/18 13:25:57;;;;;;;;;;;13.60;99.90;;;;;;5052903;28;19961;-75
2022/09/18 13:28:24;;;;;;;;;;;13.70;99.90;;;;;;5026159;28;19963;-75
2022/09/18 13:31:10;;;;;;;;;;;13.70;99.90;;;;;;5050831;28;19971;-72
2022/09/18 13:33:35;;;;;;;;;;;13.60;99.90;;;;;;5025270;28;19952;-75
2022/09/18 13:36:01;;;;;;;;;;;13.70;99.90;;;;;;5019751;28;20411;-79
2022/09/18 13:38:27;;;;;;;;;;;13.60;99.90;;;;;;5019077;28;20016;-77
2022/09/18 13:40:58;;;;;;;;;;;13.70;99.90;;;;;;5019217;28;19920;-76
2022/09/18 13:43:32;;;;;;;;;;;13.70;99.90;;;;;;5011493;28;19951;-77
2022/09/18 13:45:59;;;;;;;;;;;13.70;99.90;;;;;;5036444;28;20008;-77
2022/09/18 13:48:29;;;;;;;;;;;13.80;99.90;;;;;;5036490;28;19920;-76
2022/09/18 13:50:56;;;;;;;;;;;13.80;99.90;;;;;;5018757;28;20052;-77
2022/09/18 13:53:40;;;;;;;;;;;13.90;99.90;;;;;;5017666;28;19968;-77
2022/09/18 13:56:07;;;;;;;;;;;14.00;99.90;;;;;;5014691;28;19957;-78
2022/09/18 13:58:34;;;;;;;;;;;14.00;99.90;;;;;;5019338;28;19968;-77
2022/09/18 14:01:01;;;;;;;;;;;14.20;99.90;;;;;;5022957;28;19917;-78
2022/09/18 14:03:26;;;;;;;;;;;14.40;99.90;;;;;;5019529;28;19921;-78
2022/09/18 14:05:52;;;;;;;;;;;14.10;99.90;;;;;;5016326;28;19951;-75
2022/09/18 14:08:18;;;;;;;;;;;14.10;99.90;;;;;;5021935;28;19924;-76
2022/09/18 14:10:43;;;;;;;;;;;14.10;99.90;;;;;;5037163;28;20079;-77
2022/09/18 14:13:18;;;;;;;;;;;13.80;99.90;;;;;;5024614;28;20274;-76
2022/09/18 14:15:59;;;;;;;;;;;13.50;99.90;;;;;;5028233;28;19924;-74
2022/09/18 14:18:39;;;;;;;;;;;13.20;99.90;;;;;;5023210;28;19921;-77
2022/09/18 14:21:17;;;;;;;;;;;13.20;99.90;;;;;;5034522;28;19928;-78
2022/09/18 14:23:46;;;;;;;;;;;13.10;99.90;;;;;;5020778;28;19916;-78
2022/09/18 14:26:30;;;;;;;;;;;13.10;99.90;;;;;;5044198;28;19990;-78
2022/09/18 14:29:01;;;;;;;;;;;13.10;99.90;;;;;;5049121;28;19927;-77
2022/09/18 14:31:28;;;;;;;;;;;13.20;99.90;;;;;;5020062;28;19925;-81